sensor_id;sensor_type;location;lat;lon;timestamp;pressure;altitude;pressure_sealevel;temperature;humidity
60719;BME280;46567;51.660;5.824;2023-03-25T00:00:31;100140.0;;;11.0;82.0
60719;BME280;46567;51.660;5.824;2023-03-25T00:05:31;100150.0;;;11.0;82.0
60719;BME280;46567;51.660;5.824;2023-03-25T00:10:31;100130.0;;;11.1;82.0
60719;BME280;46567;51.660;5.824;2023-03-25T00:15:31;100130.0;;;11.1;81.5
60719;BME280;46567;51.660;5.824;2023-03-25T00:20:32;100110.0;;;11.1;81.5
60719;BME280;46567;51.660;5.824;2023-03-25T00:25:32;100120.0;;;11.1;81.0
60719;BME280;46567;51.660;5.824;2023-03-25T00:30:31;100120.0;;;11.1;81.0
60719;BME280;46567;51.660;5.824;2023-03-25T00:35:31;100110.0;;;11.1;80.5
60719;BME280;46567;51.660;5.824;2023-03-25T00:40:32;100130.0;;;11.1;80.5
60719;BME280;46567;51.660;5.824;2023-03-25T00:45:33;100140.0;;;11.2;80.5
60719;BME280;46567;51.660;5.824;2023-03-25T00:55:32;100130.0;;;11.2;80.0
60719;BME280;46567;51.660;5.824;2023-03-25T01:00:31;100120.0;;;11.2;79.5
60719;BME280;46567;51.660;5.824;2023-03-25T01:05:31;100130.0;;;11.2;79.5
60719;BME280;46567;51.660;5.824;2023-03-25T01:10:33;100130.0;;;11.2;79.0
60719;BME280;46567;51.660;5.824;2023-03-25T01:15:31;100120.0;;;11.2;79.0
60719;BME280;46567;51.660;5.824;2023-03-25T01:20:31;100110.0;;;11.2;78.5
60719;BME280;46567;51.660;5.824;2023-03-25T01:25:31;100130.0;;;11.2;79.0
60719;BME280;46567;51.660;5.824;2023-03-25T01:30:31;100130.0;;;11.1;79.0
60719;BME280;46567;51.660;5.824;2023-03-25T01:35:31;100120.0;;;11.1;79.0
60719;BME280;46567;51.660;5.824;2023-03-25T01:40:32;100120.0;;;11.1;78.5
60719;BME280;46567;51.660;5.824;2023-03-25T01:45:31;100120.0;;;11.1;78.5
60719;BME280;46567;51.660;5.824;2023-03-25T01:50:32;100120.0;;;11.1;78.5
60719;BME280;46567;51.660;5.824;2023-03-25T01:55:33;100120.0;;;11.1;78.5
60719;BME280;46567;51.660;5.824;2023-03-25T02:00:32;100120.0;;;11.1;78.5
60719;BME280;46567;51.660;5.824;2023-03-25T02:05:37;100120.0;;;11.1;79.0
60719;BME280;46567;51.660;5.824;2023-03-25T02:10:31;100110.0;;;11.1;79.0
60719;BME280;46567;51.660;5.824;2023-03-25T02:15:49;100120.0;;;11.0;79.5
60719;BME280;46567;51.660;5.824;2023-03-25T02:22:49;100120.0;;;10.9;80.0
60719;BME280;46567;51.660;5.824;2023-03-25T02:29:10;100120.0;;;10.8;80.5
60719;BME280;46567;51.660;5.824;2023-03-25T02:35:42;100110.0;;;10.7;80.5
60719;BME280;46567;51.660;5.824;2023-03-25T02:40:35;100120.0;;;10.7;81.0
60719;BME280;46567;51.660;5.824;2023-03-25T02:44:13;100110.0;;;10.7;81.0
60719;BME280;46567;51.660;5.824;2023-03-25T02:46:46;100110.0;;;10.7;80.5
60719;BME280;46567;51.660;5.824;2023-03-25T02:50:39;100110.0;;;10.7;81.5
60719;BME280;46567;51.660;5.824;2023-03-25T02:55:32;100100.0;;;10.6;82.5
60719;BME280;46567;51.660;5.824;2023-03-25T03:00:32;100120.0;;;10.5;83.0
60719;BME280;46567;51.660;5.824;2023-03-25T03:05:33;100090.0;;;10.5;83.0
60719;BME280;46567;51.660;5.824;2023-03-25T03:10:38;100090.0;;;10.5;83.0
60719;BME280;46567;51.660;5.824;2023-03-25T03:16:18;100100.0;;;10.5;83.0
60719;BME280;46567;51.660;5.824;2023-03-25T03:21:03;100090.0;;;10.4;83.0
60719;BME280;46567;51.660;5.824;2023-03-25T03:25:49;100100.0;;;10.5;83.0
60719;BME280;46567;51.660;5.824;2023-03-25T03:30:35;100100.0;;;10.5;83.0
60719;BME280;46567;51.660;5.824;2023-03-25T03:35:34;100100.0;;;10.4;83.0
60719;BME280;46567;51.660;5.824;2023-03-25T03:40:32;100100.0;;;10.4;83.5
60719;BME280;46567;51.660;5.824;2023-03-25T03:45:37;100090.0;;;10.4;83.5
60719;BME280;46567;51.660;5.824;2023-03-25T03:50:35;100100.0;;;10.4;84.0
60719;BME280;46567;51.660;5.824;2023-03-25T03:55:34;100110.0;;;10.4;84.5
60719;BME280;46567;51.660;5.824;2023-03-25T04:00:40;100100.0;;;10.3;85.0
60719;BME280;46567;51.660;5.824;2023-03-25T04:05:32;100110.0;;;10.3;85.0
60719;BME280;46567;51.660;5.824;2023-03-25T04:10:38;100100.0;;;10.3;85.0
60719;BME280;46567;51.660;5.824;2023-03-25T04:15:31;100090.0;;;10.3;85.0
60719;BME280;46567;51.660;5.824;2023-03-25T04:20:33;100110.0;;;10.3;85.0
60719;BME280;46567;51.660;5.824;2023-03-25T04:25:31;100080.0;;;10.3;85.0
60719;BME280;46567;51.660;5.824;2023-03-25T04:30:31;100100.0;;;10.3;85.0
60719;BME280;46567;51.660;5.824;2023-03-25T04:35:31;100090.0;;;10.3;85.0
60719;BME280;46567;51.660;5.824;2023-03-25T04:40:32;100100.0;;;10.3;85.0
60719;BME280;46567;51.660;5.824;2023-03-25T04:45:31;100090.0;;;10.3;84.5
60719;BME280;46567;51.660;5.824;2023-03-25T04:50:31;100090.0;;;10.3;84.5
60719;BME280;46567;51.660;5.824;2023-03-25T04:55:31;100090.0;;;10.4;84.5
60719;BME280;46567;51.660;5.824;2023-03-25T05:00:32;100100.0;;;10.4;84.0
60719;BME280;46567;51.660;5.824;2023-03-25T05:05:31;100090.0;;;10.4;84.0
60719;BME280;46567;51.660;5.824;2023-03-25T05:10:32;100080.0;;;10.3;84.5
60719;BME280;46567;51.660;5.824;2023-03-25T05:15:35;100090.0;;;10.3;84.5
60719;BME280;46567;51.660;5.824;2023-03-25T05:20:31;100100.0;;;10.3;85.0
60719;BME280;46567;51.660;5.824;2023-03-25T05:25:31;100090.0;;;10.2;85.0
60719;BME280;46567;51.660;5.824;2023-03-25T05:30:31;100110.0;;;10.1;86.0
60719;BME280;46567;51.660;5.824;2023-03-25T05:35:32;100110.0;;;10.1;86.0
60719;BME280;46567;51.660;5.824;2023-03-25T05:40:31;100100.0;;;10.1;86.5
60719;BME280;46567;51.660;5.824;2023-03-25T05:45:32;100110.0;;;10.0;86.5
60719;BME280;46567;51.660;5.824;2023-03-25T05:50:32;100120.0;;;10.0;87.0
60719;BME280;46567;51.660;5.824;2023-03-25T05:55:31;100120.0;;;10.0;87.0
60719;BME280;46567;51.660;5.824;2023-03-25T06:00:32;100120.0;;;10.0;87.0
60719;BME280;46567;51.660;5.824;2023-03-25T06:05:31;100120.0;;;10.1;87.0
60719;BME280;46567;51.660;5.824;2023-03-25T06:10:31;100120.0;;;10.1;87.0
60719;BME280;46567;51.660;5.824;2023-03-25T06:15:31;100130.0;;;10.1;86.5
60719;BME280;46567;51.660;5.824;2023-03-25T06:20:32;100130.0;;;10.1;86.0
60719;BME280;46567;51.660;5.824;2023-03-25T06:25:32;100120.0;;;10.1;85.5
60719;BME280;46567;51.660;5.824;2023-03-25T06:30:31;100130.0;;;10.1;85.0
60719;BME280;46567;51.660;5.824;2023-03-25T06:35:32;100130.0;;;10.1;85.0
60719;BME280;46567;51.660;5.824;2023-03-25T06:40:31;100140.0;;;10.1;84.5
60719;BME280;46567;51.660;5.824;2023-03-25T06:45:32;100140.0;;;10.1;84.0
60719;BME280;46567;51.660;5.824;2023-03-25T06:50:32;100140.0;;;10.1;84.0
60719;BME280;46567;51.660;5.824;2023-03-25T06:55:32;100150.0;;;10.2;84.0
60719;BME280;46567;51.660;5.824;2023-03-25T07:00:32;100150.0;;;10.4;83.5
60719;BME280;46567;51.660;5.824;2023-03-25T07:05:32;100150.0;;;10.5;83.0
60719;BME280;46567;51.660;5.824;2023-03-25T07:10:31;100150.0;;;10.6;83.0
60719;BME280;46567;51.660;5.824;2023-03-25T07:15:32;100140.0;;;10.7;82.5
60719;BME280;46567;51.660;5.824;2023-03-25T07:20:32;100150.0;;;10.8;82.0
60719;BME280;46567;51.660;5.824;2023-03-25T07:25:32;100140.0;;;10.8;82.0
60719;BME280;46567;51.660;5.824;2023-03-25T07:30:32;100150.0;;;10.9;82.0
60719;BME280;46567;51.660;5.824;2023-03-25T07:35:31;100150.0;;;11.0;81.5
60719;BME280;46567;51.660;5.824;2023-03-25T07:40:33;100160.0;;;11.1;81.0
60719;BME280;46567;51.660;5.824;2023-03-25T07:45:32;100160.0;;;11.2;81.0
60719;BME280;46567;51.660;5.824;2023-03-25T07:50:32;100160.0;;;11.3;81.0
60719;BME280;46567;51.660;5.824;2023-03-25T07:55:32;100170.0;;;11.2;81.0
60719;BME280;46567;51.660;5.824;2023-03-25T08:00:32;100170.0;;;11.1;82.0
60719;BME280;46567;51.660;5.824;2023-03-25T08:05:31;100180.0;;;11.0;82.0
60719;BME280;46567;51.660;5.824;2023-03-25T08:10:32;100180.0;;;10.9;82.0
60719;BME280;46567;51.660;5.824;2023-03-25T08:15:32;100180.0;;;11.0;82.5
60719;BME280;46567;51.660;5.824;2023-03-25T08:20:32;100200.0;;;11.1;83.0
60719;BME280;46567;51.660;5.824;2023-03-25T08:25:31;100190.0;;;11.2;83.0
60719;BME280;46567;51.660;5.824;2023-03-25T08:30:32;100200.0;;;11.2;82.5
60719;BME280;46567;51.660;5.824;2023-03-25T08:35:33;100210.0;;;11.2;83.0
60719;BME280;46567;51.660;5.824;2023-03-25T08:40:32;100210.0;;;11.2;82.5
60719;BME280;46567;51.660;5.824;2023-03-25T08:45:32;100220.0;;;11.2;83.0
60719;BME280;46567;51.660;5.824;2023-03-25T08:50:31;100210.0;;;11.2;83.5
60719;BME280;46567;51.660;5.824;2023-03-25T08:55:32;100220.0;;;11.2;83.5
60719;BME280;46567;51.660;5.824;2023-03-25T09:00:32;100220.0;;;11.1;84.0
60719;BME280;46567;51.660;5.824;2023-03-25T09:05:32;100230.0;;;11.0;84.5
60719;BME280;46567;51.660;5.824;2023-03-25T09:10:32;100220.0;;;11.0;85.5
60719;BME280;46567;51.660;5.824;2023-03-25T09:15:32;100210.0;;;11.0;86.0
60719;BME280;46567;51.660;5.824;2023-03-25T09:20:32;100220.0;;;11.2;86.5
60719;BME280;46567;51.660;5.824;2023-03-25T09:25:32;100200.0;;;11.4;86.5
60719;BME280;46567;51.660;5.824;2023-03-25T09:30:31;100190.0;;;11.8;86.0
60719;BME280;46567;51.660;5.824;2023-03-25T09:35:32;100200.0;;;12.0;85.0
60719;BME280;46567;51.660;5.824;2023-03-25T09:40:32;100200.0;;;12.2;84.0
60719;BME280;46567;51.660;5.824;2023-03-25T09:45:48;100200.0;;;12.3;82.5
60719;BME280;46567;51.660;5.824;2023-03-25T09:50:35;100200.0;;;12.5;82.5
60719;BME280;46567;51.660;5.824;2023-03-25T09:55:35;100220.0;;;12.6;81.5
60719;BME280;46567;51.660;5.824;2023-03-25T10:00:32;100200.0;;;12.8;80.5
60719;BME280;46567;51.660;5.824;2023-03-25T10:06:17;100220.0;;;12.8;79.5
60719;BME280;46567;51.660;5.824;2023-03-25T10:11:05;100220.0;;;12.7;79.5
60719;BME280;46567;51.660;5.824;2023-03-25T10:16:32;100220.0;;;12.5;79.5
60719;BME280;46567;51.660;5.824;2023-03-25T10:21:27;100240.0;;;12.4;80.0
60719;BME280;46567;51.660;5.824;2023-03-25T10:26:02;100230.0;;;12.2;81.5
60719;BME280;46567;51.660;5.824;2023-03-25T10:30:41;100230.0;;;12.0;83.0
60719;BME280;46567;51.660;5.824;2023-03-25T10:35:46;100250.0;;;12.0;83.5
60719;BME280;46567;51.660;5.824;2023-03-25T10:40:33;100230.0;;;12.0;84.0
60719;BME280;46567;51.660;5.824;2023-03-25T10:45:33;100230.0;;;12.1;83.5
60719;BME280;46567;51.660;5.824;2023-03-25T10:50:32;100250.0;;;12.0;83.5
60719;BME280;46567;51.660;5.824;2023-03-25T11:00:32;100260.0;;;11.6;85.0
60719;BME280;46567;51.660;5.824;2023-03-25T11:05:33;100260.0;;;11.5;85.5
60719;BME280;46567;51.660;5.824;2023-03-25T11:10:32;100250.0;;;11.4;86.5
60719;BME280;46567;51.660;5.824;2023-03-25T11:25:36;100250.0;;;11.9;88.0
60719;BME280;46567;51.660;5.824;2023-03-25T11:30:32;100250.0;;;12.3;88.0
60719;BME280;46567;51.660;5.824;2023-03-25T11:35:37;100250.0;;;12.6;87.0
60719;BME280;46567;51.660;5.824;2023-03-25T11:40:32;100250.0;;;12.6;86.5
60719;BME280;46567;51.660;5.824;2023-03-25T11:45:34;100240.0;;;12.6;86.0
60719;BME280;46567;51.660;5.824;2023-03-25T11:50:33;100230.0;;;12.8;84.0
60719;BME280;46567;51.660;5.824;2023-03-25T11:55:41;100260.0;;;12.8;81.0
60719;BME280;46567;51.660;5.824;2023-03-25T12:00:36;100250.0;;;12.9;80.0
60719;BME280;46567;51.660;5.824;2023-03-25T12:05:32;100240.0;;;13.2;79.5
60719;BME280;46567;51.660;5.824;2023-03-25T12:10:38;100260.0;;;13.3;77.5
60719;BME280;46567;51.660;5.824;2023-03-25T12:16:20;100260.0;;;12.9;77.5
60719;BME280;46567;51.660;5.824;2023-03-25T12:21:24;100250.0;;;12.7;79.5
60719;BME280;46567;51.660;5.824;2023-03-25T12:26:31;100240.0;;;12.5;80.0
60719;BME280;46567;51.660;5.824;2023-03-25T12:32:10;100250.0;;;12.3;80.5
60719;BME280;46567;51.660;5.824;2023-03-25T12:37:57;100220.0;;;12.0;81.0
60719;BME280;46567;51.660;5.824;2023-03-25T12:43:49;100230.0;;;11.9;81.0
60719;BME280;46567;51.660;5.824;2023-03-25T12:49:16;100270.0;;;11.8;82.5
60719;BME280;46567;51.660;5.824;2023-03-25T12:54:40;100250.0;;;11.6;83.0
60719;BME280;46567;51.660;5.824;2023-03-25T13:00:45;100240.0;;;11.9;84.0
60719;BME280;46567;51.660;5.824;2023-03-25T13:05:51;100240.0;;;12.2;83.5
60719;BME280;46567;51.660;5.824;2023-03-25T13:10:02;100240.0;;;12.4;82.5
60719;BME280;46567;51.660;5.824;2023-03-25T13:12:55;100240.0;;;12.6;82.5
60719;BME280;46567;51.660;5.824;2023-03-25T13:16:05;100240.0;;;12.9;81.5
60719;BME280;46567;51.660;5.824;2023-03-25T13:20:34;100260.0;;;13.0;80.5
60719;BME280;46567;51.660;5.824;2023-03-25T13:25:34;100260.0;;;12.8;81.0
60719;BME280;46567;51.660;5.824;2023-03-25T13:30:33;100260.0;;;12.6;83.0
60719;BME280;46567;51.660;5.824;2023-03-25T13:35:37;100250.0;;;12.7;83.0
60719;BME280;46567;51.660;5.824;2023-03-25T13:40:39;100250.0;;;12.8;83.0
60719;BME280;46567;51.660;5.824;2023-03-25T13:45:37;100240.0;;;12.9;82.0
60719;BME280;46567;51.660;5.824;2023-03-25T13:50:32;100250.0;;;13.1;81.0
60719;BME280;46567;51.660;5.824;2023-03-25T13:55:38;100250.0;;;13.4;80.0
60719;BME280;46567;51.660;5.824;2023-03-25T14:01:54;100260.0;;;13.7;77.0
60719;BME280;46567;51.660;5.824;2023-03-25T14:09:16;100270.0;;;13.9;75.5
60719;BME280;46567;51.660;5.824;2023-03-25T14:12:57;100260.0;;;14.2;75.0
60719;BME280;46567;51.660;5.824;2023-03-25T14:15:39;100270.0;;;14.4;73.0
60719;BME280;46567;51.660;5.824;2023-03-25T14:20:33;100260.0;;;14.3;70.5
60719;BME280;46567;51.660;5.824;2023-03-25T14:25:37;100260.0;;;14.3;69.5
60719;BME280;46567;51.660;5.824;2023-03-25T14:30:33;100270.0;;;14.2;68.5
60719;BME280;46567;51.660;5.824;2023-03-25T14:35:49;100270.0;;;14.2;68.5
60719;BME280;46567;51.660;5.824;2023-03-25T14:40:48;100270.0;;;14.2;67.5
60719;BME280;46567;51.660;5.824;2023-03-25T14:46:20;100280.0;;;14.3;66.5
60719;BME280;46567;51.660;5.824;2023-03-25T14:50:32;100280.0;;;14.3;65.5
60719;BME280;46567;51.660;5.824;2023-03-25T14:55:33;100280.0;;;14.4;66.0
60719;BME280;46567;51.660;5.824;2023-03-25T15:00:34;100280.0;;;14.5;66.0
60719;BME280;46567;51.660;5.824;2023-03-25T15:05:32;100280.0;;;14.6;65.0
60719;BME280;46567;51.660;5.824;2023-03-25T15:10:37;100280.0;;;14.8;63.5
60719;BME280;46567;51.660;5.824;2023-03-25T15:15:54;100290.0;;;15.2;63.0
60719;BME280;46567;51.660;5.824;2023-03-25T15:20:34;100310.0;;;15.5;62.5
60719;BME280;46567;51.660;5.824;2023-03-25T15:25:32;100290.0;;;15.3;61.0
60719;BME280;46567;51.660;5.824;2023-03-25T15:31:20;100310.0;;;15.1;61.0
60719;BME280;46567;51.660;5.824;2023-03-25T15:36:57;100310.0;;;15.0;61.0
60719;BME280;46567;51.660;5.824;2023-03-25T15:42:55;100320.0;;;14.8;60.5
60719;BME280;46567;51.660;5.824;2023-03-25T15:48:54;100320.0;;;14.6;60.5
60719;BME280;46567;51.660;5.824;2023-03-25T15:54:27;100330.0;;;14.5;60.5
60719;BME280;46567;51.660;5.824;2023-03-25T15:57:13;100330.0;;;14.4;61.5
60719;BME280;46567;51.660;5.824;2023-03-25T16:00:33;100320.0;;;14.4;61.5
60719;BME280;46567;51.660;5.824;2023-03-25T16:05:33;100330.0;;;14.3;61.5
60719;BME280;46567;51.660;5.824;2023-03-25T16:10:32;100340.0;;;14.3;61.0
60719;BME280;46567;51.660;5.824;2023-03-25T16:15:34;100340.0;;;14.3;60.5
60719;BME280;46567;51.660;5.824;2023-03-25T16:20:34;100330.0;;;14.2;61.5
60719;BME280;46567;51.660;5.824;2023-03-25T16:25:36;100360.0;;;14.2;61.5
60719;BME280;46567;51.660;5.824;2023-03-25T16:30:35;100360.0;;;14.1;61.0
60719;BME280;46567;51.660;5.824;2023-03-25T16:35:34;100370.0;;;14.0;61.0
60719;BME280;46567;51.660;5.824;2023-03-25T16:40:36;100360.0;;;13.9;61.0
60719;BME280;46567;51.660;5.824;2023-03-25T16:45:32;100370.0;;;13.9;62.5
60719;BME280;46567;51.660;5.824;2023-03-25T16:50:32;100380.0;;;13.9;63.5
60719;BME280;46567;51.660;5.824;2023-03-25T16:55:46;100380.0;;;13.8;63.5
60719;BME280;46567;51.660;5.824;2023-03-25T17:00:37;100390.0;;;13.8;64.0
60719;BME280;46567;51.660;5.824;2023-03-25T17:05:49;100390.0;;;13.7;64.5
60719;BME280;46567;51.660;5.824;2023-03-25T17:10:43;100400.0;;;13.6;65.5
60719;BME280;46567;51.660;5.824;2023-03-25T17:15:32;100390.0;;;13.6;66.0
60719;BME280;46567;51.660;5.824;2023-03-25T17:20:35;100410.0;;;13.5;66.5
60719;BME280;46567;51.660;5.824;2023-03-25T17:25:33;100400.0;;;13.5;66.5
60719;BME280;46567;51.660;5.824;2023-03-25T17:30:43;100420.0;;;13.4;66.5
60719;BME280;46567;51.660;5.824;2023-03-25T17:35:32;100420.0;;;13.4;66.5
60719;BME280;46567;51.660;5.824;2023-03-25T17:40:32;100430.0;;;13.3;67.0
60719;BME280;46567;51.660;5.824;2023-03-25T17:45:32;100440.0;;;13.3;67.5
60719;BME280;46567;51.660;5.824;2023-03-25T17:50:32;100440.0;;;13.3;67.5
60719;BME280;46567;51.660;5.824;2023-03-25T17:55:32;100440.0;;;13.3;68.0
60719;BME280;46567;51.660;5.824;2023-03-25T18:00:32;100440.0;;;13.3;68.0
60719;BME280;46567;51.660;5.824;2023-03-25T18:05:32;100450.0;;;13.2;68.5
60719;BME280;46567;51.660;5.824;2023-03-25T18:10:33;100450.0;;;13.2;68.5
60719;BME280;46567;51.660;5.824;2023-03-25T18:15:32;100460.0;;;13.2;68.5
60719;BME280;46567;51.660;5.824;2023-03-25T18:20:34;100460.0;;;13.2;68.5
60719;BME280;46567;51.660;5.824;2023-03-25T18:25:32;100470.0;;;13.2;68.5
60719;BME280;46567;51.660;5.824;2023-03-25T18:30:35;100490.0;;;13.2;69.5
60719;BME280;46567;51.660;5.824;2023-03-25T18:35:32;100480.0;;;13.1;71.0
60719;BME280;46567;51.660;5.824;2023-03-25T18:40:34;100500.0;;;12.8;72.5
60719;BME280;46567;51.660;5.824;2023-03-25T18:45:32;100480.0;;;12.6;73.5
60719;BME280;46567;51.660;5.824;2023-03-25T18:50:33;100490.0;;;12.6;73.5
60719;BME280;46567;51.660;5.824;2023-03-25T18:55:33;100500.0;;;12.5;72.5
60719;BME280;46567;51.660;5.824;2023-03-25T19:00:35;100500.0;;;12.5;72.5
60719;BME280;46567;51.660;5.824;2023-03-25T19:10:33;100520.0;;;12.4;72.5
60719;BME280;46567;51.660;5.824;2023-03-25T19:15:32;100520.0;;;12.4;72.5
60719;BME280;46567;51.660;5.824;2023-03-25T19:20:33;100540.0;;;12.3;73.0
60719;BME280;46567;51.660;5.824;2023-03-25T19:25:32;100540.0;;;12.3;73.0
60719;BME280;46567;51.660;5.824;2023-03-25T19:30:32;100550.0;;;12.2;73.5
60719;BME280;46567;51.660;5.824;2023-03-25T19:35:32;100550.0;;;12.1;74.0
60719;BME280;46567;51.660;5.824;2023-03-25T19:40:35;100560.0;;;12.1;74.5
60719;BME280;46567;51.660;5.824;2023-03-25T19:45:33;100550.0;;;12.0;74.5
60719;BME280;46567;51.660;5.824;2023-03-25T19:50:33;100560.0;;;11.9;75.0
60719;BME280;46567;51.660;5.824;2023-03-25T19:55:32;100560.0;;;11.7;76.5
60719;BME280;46567;51.660;5.824;2023-03-25T20:00:32;100550.0;;;11.4;78.0
60719;BME280;46567;51.660;5.824;2023-03-25T20:05:32;100560.0;;;11.1;79.0
60719;BME280;46567;51.660;5.824;2023-03-25T20:10:32;100570.0;;;10.9;80.0
60719;BME280;46567;51.660;5.824;2023-03-25T20:15:32;100560.0;;;10.7;81.0
60719;BME280;46567;51.660;5.824;2023-03-25T20:20:32;100570.0;;;10.6;81.0
60719;BME280;46567;51.660;5.824;2023-03-25T20:25:32;100560.0;;;10.5;81.5
60719;BME280;46567;51.660;5.824;2023-03-25T20:30:32;100570.0;;;10.4;81.5
60719;BME280;46567;51.660;5.824;2023-03-25T20:35:32;100580.0;;;10.3;81.5
60719;BME280;46567;51.660;5.824;2023-03-25T20:40:32;100570.0;;;10.2;82.0
60719;BME280;46567;51.660;5.824;2023-03-25T20:45:32;100570.0;;;10.2;82.0
60719;BME280;46567;51.660;5.824;2023-03-25T20:50:32;100560.0;;;10.1;82.0
60719;BME280;46567;51.660;5.824;2023-03-25T20:55:32;100580.0;;;10.1;82.5
60719;BME280;46567;51.660;5.824;2023-03-25T21:00:32;100570.0;;;10.1;82.5
60719;BME280;46567;51.660;5.824;2023-03-25T21:05:32;100580.0;;;10.0;83.0
60719;BME280;46567;51.660;5.824;2023-03-25T21:10:32;100580.0;;;10.1;83.5
60719;BME280;46567;51.660;5.824;2023-03-25T21:15:35;100580.0;;;10.1;83.5
60719;BME280;46567;51.660;5.824;2023-03-25T21:20:32;100590.0;;;10.1;83.5
60719;BME280;46567;51.660;5.824;2023-03-25T21:25:32;100590.0;;;10.1;84.0
60719;BME280;46567;51.660;5.824;2023-03-25T21:30:33;100610.0;;;10.1;84.5
60719;BME280;46567;51.660;5.824;2023-03-25T21:35:32;100610.0;;;10.1;84.5
60719;BME280;46567;51.660;5.824;2023-03-25T21:40:32;100610.0;;;10.0;84.5
60719;BME280;46567;51.660;5.824;2023-03-25T21:45:32;100620.0;;;10.0;85.0
60719;BME280;46567;51.660;5.824;2023-03-25T21:55:32;100620.0;;;9.9;85.0
60719;BME280;46567;51.660;5.824;2023-03-25T22:00:32;100620.0;;;9.9;85.5
60719;BME280;46567;51.660;5.824;2023-03-25T22:05:32;100640.0;;;9.9;85.0
60719;BME280;46567;51.660;5.824;2023-03-25T22:10:32;100640.0;;;9.9;85.0
60719;BME280;46567;51.660;5.824;2023-03-25T22:15:33;100630.0;;;9.9;85.0
60719;BME280;46567;51.660;5.824;2023-03-25T22:20:32;100640.0;;;9.9;85.0
60719;BME280;46567;51.660;5.824;2023-03-25T22:25:32;100630.0;;;9.9;85.0
60719;BME280;46567;51.660;5.824;2023-03-25T22:30:32;100650.0;;;9.9;85.0
60719;BME280;46567;51.660;5.824;2023-03-25T22:35:32;100650.0;;;9.8;85.0
60719;BME280;46567;51.660;5.824;2023-03-25T22:40:32;100660.0;;;9.8;85.5
60719;BME280;46567;51.660;5.824;2023-03-25T22:45:32;100660.0;;;9.9;85.5
60719;BME280;46567;51.660;5.824;2023-03-25T22:50:33;100650.0;;;9.9;85.5
60719;BME280;46567;51.660;5.824;2023-03-25T23:00:32;100660.0;;;10.0;85.5
60719;BME280;46567;51.660;5.824;2023-03-25T23:05:32;100660.0;;;10.0;85.5
60719;BME280;46567;51.660;5.824;2023-03-25T23:10:32;100660.0;;;10.0;85.5
60719;BME280;46567;51.660;5.824;2023-03-25T23:15:32;100670.0;;;10.0;85.5
60719;BME280;46567;51.660;5.824;2023-03-25T23:20:32;100670.0;;;10.0;86.0
60719;BME280;46567;51.660;5.824;2023-03-25T23:25:32;100660.0;;;10.0;86.0
60719;BME280;46567;51.660;5.824;2023-03-25T23:30:32;100660.0;;;10.0;86.0
60719;BME280;46567;51.660;5.824;2023-03-25T23:35:32;100660.0;;;10.0;86.5
60719;BME280;46567;51.660;5.824;2023-03-25T23:40:32;100660.0;;;10.1;86.5
60719;BME280;46567;51.660;5.824;2023-03-25T23:45:32;100650.0;;;10.1;86.5
60719;BME280;46567;51.660;5.824;2023-03-25T23:50:32;100650.0;;;10.2;87.0
60719;BME280;46567;51.660;5.824;2023-03-25T23:55:32;100650.0;;;10.2;87.0
